sensor_id;sensor_type;location;lat;lon;timestamp;temperature;humidity
31765;DHT22;18338;53.240;8.798;2022-12-17T00:00:22;-3.50;99.90
31765;DHT22;18338;53.240;8.798;2022-12-17T00:03:09;-3.50;99.90
31765;DHT22;18338;53.240;8.798;2022-12-17T00:05:55;-3.50;99.90
31765;DHT22;18338;53.240;8.798;2022-12-17T00:08:40;-3.50;99.90
31765;DHT22;18338;53.240;8.798;2022-12-17T00:11:26;-3.50;99.90
31765;DHT22;18338;53.240;8.798;2022-12-17T00:14:11;-3.50;99.90
31765;DHT22;18338;53.240;8.798;2022-12-17T00:16:56;-3.40;99.90
31765;DHT22;18338;53.240;8.798;2022-12-17T00:19:42;-3.50;99.90
31765;DHT22;18338;53.240;8.798;2022-12-17T00:22:27;-3.50;99.90
31765;DHT22;18338;53.240;8.798;2022-12-17T00:25:13;-3.60;99.90
31765;DHT22;18338;53.240;8.798;2022-12-17T00:27:58;-3.70;99.90
31765;DHT22;18338;53.240;8.798;2022-12-17T00:30:50;-3.70;99.90
31765;DHT22;18338;53.240;8.798;2022-12-17T00:33:35;-3.70;99.90
31765;DHT22;18338;53.240;8.798;2022-12-17T00:36:21;-3.70;99.90
31765;DHT22;18338;53.240;8.798;2022-12-17T00:39:07;-3.80;99.90
31765;DHT22;18338;53.240;8.798;2022-12-17T00:41:55;-3.70;99.90
31765;DHT22;18338;53.240;8.798;2022-12-17T00:44:40;-3.80;99.90
31765;DHT22;18338;53.240;8.798;2022-12-17T00:47:26;-3.80;99.90
31765;DHT22;18338;53.240;8.798;2022-12-17T00:50:11;-3.80;99.90
31765;DHT22;18338;53.240;8.798;2022-12-17T00:52:56;-3.80;99.90
31765;DHT22;18338;53.240;8.798;2022-12-17T00:55:42;-3.80;99.90
31765;DHT22;18338;53.240;8.798;2022-12-17T00:58:27;-3.80;99.90
31765;DHT22;18338;53.240;8.798;2022-12-17T01:01:13;-3.80;99.90
31765;DHT22;18338;53.240;8.798;2022-12-17T01:03:59;-3.80;99.90
31765;DHT22;18338;53.240;8.798;2022-12-17T01:06:44;-3.90;99.90
31765;DHT22;18338;53.240;8.798;2022-12-17T01:09:29;-4.00;99.90
31765;DHT22;18338;53.240;8.798;2022-12-17T01:12:15;-4.10;99.90
31765;DHT22;18338;53.240;8.798;2022-12-17T01:15:02;-4.00;99.90
31765;DHT22;18338;53.240;8.798;2022-12-17T01:17:47;-3.90;99.90
31765;DHT22;18338;53.240;8.798;2022-12-17T01:20:32;-3.90;99.90
31765;DHT22;18338;53.240;8.798;2022-12-17T01:23:18;-3.90;99.90
31765;DHT22;18338;53.240;8.798;2022-12-17T01:26:04;-3.80;99.90
31765;DHT22;18338;53.240;8.798;2022-12-17T01:28:49;-3.70;99.90
31765;DHT22;18338;53.240;8.798;2022-12-17T01:31:35;-3.70;99.90
31765;DHT22;18338;53.240;8.798;2022-12-17T01:34:20;-3.70;99.90
31765;DHT22;18338;53.240;8.798;2022-12-17T01:37:05;-3.70;99.90
31765;DHT22;18338;53.240;8.798;2022-12-17T01:39:50;-3.80;99.90
31765;DHT22;18338;53.240;8.798;2022-12-17T01:42:41;-3.90;99.90
31765;DHT22;18338;53.240;8.798;2022-12-17T01:45:42;-3.90;99.90
31765;DHT22;18338;53.240;8.798;2022-12-17T01:48:33;-4.00;99.90
31765;DHT22;18338;53.240;8.798;2022-12-17T01:51:21;-3.90;99.90
31765;DHT22;18338;53.240;8.798;2022-12-17T01:54:07;-3.90;99.90
31765;DHT22;18338;53.240;8.798;2022-12-17T01:56:52;-3.80;99.90
31765;DHT22;18338;53.240;8.798;2022-12-17T01:59:51;-3.80;99.90
31765;DHT22;18338;53.240;8.798;2022-12-17T02:02:40;-3.80;99.90
31765;DHT22;18338;53.240;8.798;2022-12-17T02:05:33;-3.90;99.90
31765;DHT22;18338;53.240;8.798;2022-12-17T02:08:31;-3.90;99.90
31765;DHT22;18338;53.240;8.798;2022-12-17T02:11:40;-4.00;99.90
31765;DHT22;18338;53.240;8.798;2022-12-17T02:14:33;-4.10;99.90
31765;DHT22;18338;53.240;8.798;2022-12-17T02:17:35;-4.10;99.90
31765;DHT22;18338;53.240;8.798;2022-12-17T02:20:30;-4.20;99.90
31765;DHT22;18338;53.240;8.798;2022-12-17T02:29:07;-4.30;99.90
31765;DHT22;18338;53.240;8.798;2022-12-17T02:31:53;-4.30;99.90
31765;DHT22;18338;53.240;8.798;2022-12-17T02:34:46;-4.30;99.90
31765;DHT22;18338;53.240;8.798;2022-12-17T02:37:31;-4.40;99.90
31765;DHT22;18338;53.240;8.798;2022-12-17T02:40:18;-4.40;99.90
31765;DHT22;18338;53.240;8.798;2022-12-17T02:43:05;-4.40;99.90
31765;DHT22;18338;53.240;8.798;2022-12-17T02:45:51;-4.40;99.90
31765;DHT22;18338;53.240;8.798;2022-12-17T02:48:37;-4.40;99.90
31765;DHT22;18338;53.240;8.798;2022-12-17T02:51:23;-4.50;99.90
31765;DHT22;18338;53.240;8.798;2022-12-17T02:54:09;-4.50;99.90
31765;DHT22;18338;53.240;8.798;2022-12-17T02:56:55;-4.50;99.90
31765;DHT22;18338;53.240;8.798;2022-12-17T02:59:40;-4.60;99.90
31765;DHT22;18338;53.240;8.798;2022-12-17T03:02:26;-4.60;99.90
31765;DHT22;18338;53.240;8.798;2022-12-17T03:05:11;-4.60;99.90
31765;DHT22;18338;53.240;8.798;2022-12-17T03:08:13;-4.60;99.90
31765;DHT22;18338;53.240;8.798;2022-12-17T03:10:58;-4.70;99.90
31765;DHT22;18338;53.240;8.798;2022-12-17T03:13:44;-4.60;99.90
31765;DHT22;18338;53.240;8.798;2022-12-17T03:16:29;-4.70;99.90
31765;DHT22;18338;53.240;8.798;2022-12-17T03:19:14;-4.50;99.90
31765;DHT22;18338;53.240;8.798;2022-12-17T03:22:03;-4.40;99.90
31765;DHT22;18338;53.240;8.798;2022-12-17T03:24:48;-4.40;99.90
31765;DHT22;18338;53.240;8.798;2022-12-17T03:27:34;-4.30;99.90
31765;DHT22;18338;53.240;8.798;2022-12-17T03:30:19;-4.20;99.90
31765;DHT22;18338;53.240;8.798;2022-12-17T03:33:09;-4.20;99.90
31765;DHT22;18338;53.240;8.798;2022-12-17T03:35:55;-4.20;99.90
31765;DHT22;18338;53.240;8.798;2022-12-17T03:38:40;-4.20;99.90
31765;DHT22;18338;53.240;8.798;2022-12-17T03:41:25;-4.30;99.90
31765;DHT22;18338;53.240;8.798;2022-12-17T03:44:11;-4.40;99.90
31765;DHT22;18338;53.240;8.798;2022-12-17T03:46:56;-4.30;99.90
31765;DHT22;18338;53.240;8.798;2022-12-17T03:49:42;-4.30;99.90
31765;DHT22;18338;53.240;8.798;2022-12-17T03:52:27;-4.40;99.90
31765;DHT22;18338;53.240;8.798;2022-12-17T03:55:12;-4.60;99.90
31765;DHT22;18338;53.240;8.798;2022-12-17T03:57:57;-4.60;99.90
31765;DHT22;18338;53.240;8.798;2022-12-17T04:00:43;-4.60;99.90
31765;DHT22;18338;53.240;8.798;2022-12-17T04:03:28;-4.70;99.90
31765;DHT22;18338;53.240;8.798;2022-12-17T04:06:14;-4.80;99.90
31765;DHT22;18338;53.240;8.798;2022-12-17T04:08:59;-4.80;99.90
31765;DHT22;18338;53.240;8.798;2022-12-17T04:11:45;-4.90;99.90
31765;DHT22;18338;53.240;8.798;2022-12-17T04:14:30;-4.70;99.90
31765;DHT22;18338;53.240;8.798;2022-12-17T04:17:16;-4.60;99.90
31765;DHT22;18338;53.240;8.798;2022-12-17T04:20:01;-4.70;99.90
31765;DHT22;18338;53.240;8.798;2022-12-17T04:22:46;-4.70;99.90
31765;DHT22;18338;53.240;8.798;2022-12-17T04:25:32;-4.70;99.90
31765;DHT22;18338;53.240;8.798;2022-12-17T04:28:17;-4.80;99.90
31765;DHT22;18338;53.240;8.798;2022-12-17T04:31:03;-4.90;99.90
31765;DHT22;18338;53.240;8.798;2022-12-17T04:33:48;-5.00;99.90
31765;DHT22;18338;53.240;8.798;2022-12-17T04:36:34;-4.90;99.90
31765;DHT22;18338;53.240;8.798;2022-12-17T04:39:22;-4.80;99.90
31765;DHT22;18338;53.240;8.798;2022-12-17T04:42:10;-4.90;99.90
31765;DHT22;18338;53.240;8.798;2022-12-17T04:44:55;-4.90;99.90
31765;DHT22;18338;53.240;8.798;2022-12-17T04:47:41;-5.00;99.90
31765;DHT22;18338;53.240;8.798;2022-12-17T04:50:26;-5.00;99.90
31765;DHT22;18338;53.240;8.798;2022-12-17T04:53:19;-5.00;99.90
31765;DHT22;18338;53.240;8.798;2022-12-17T04:56:05;-5.00;99.90
31765;DHT22;18338;53.240;8.798;2022-12-17T04:58:50;-4.90;99.90
31765;DHT22;18338;53.240;8.798;2022-12-17T05:01:37;-4.90;99.90
31765;DHT22;18338;53.240;8.798;2022-12-17T05:04:28;-5.00;99.90
31765;DHT22;18338;53.240;8.798;2022-12-17T05:07:17;-5.00;99.90
31765;DHT22;18338;53.240;8.798;2022-12-17T05:10:03;-4.90;99.90
31765;DHT22;18338;53.240;8.798;2022-12-17T05:12:58;-4.90;99.90
31765;DHT22;18338;53.240;8.798;2022-12-17T05:15:43;-4.80;99.90
31765;DHT22;18338;53.240;8.798;2022-12-17T05:18:29;-4.70;99.90
31765;DHT22;18338;53.240;8.798;2022-12-17T05:21:14;-4.80;99.90
31765;DHT22;18338;53.240;8.798;2022-12-17T05:24:00;-4.80;99.90
31765;DHT22;18338;53.240;8.798;2022-12-17T05:26:45;-4.80;99.90
31765;DHT22;18338;53.240;8.798;2022-12-17T05:29:30;-4.80;99.90
31765;DHT22;18338;53.240;8.798;2022-12-17T05:32:15;-4.80;99.90
31765;DHT22;18338;53.240;8.798;2022-12-17T05:35:01;-4.80;99.90
31765;DHT22;18338;53.240;8.798;2022-12-17T05:38:04;-4.70;99.90
31765;DHT22;18338;53.240;8.798;2022-12-17T05:40:50;-4.70;99.90
31765;DHT22;18338;53.240;8.798;2022-12-17T05:43:35;-4.70;99.90
31765;DHT22;18338;53.240;8.798;2022-12-17T05:46:21;-4.70;99.90
31765;DHT22;18338;53.240;8.798;2022-12-17T05:49:06;-4.70;99.90
31765;DHT22;18338;53.240;8.798;2022-12-17T05:51:52;-4.70;99.90
31765;DHT22;18338;53.240;8.798;2022-12-17T05:54:37;-4.80;99.90
31765;DHT22;18338;53.240;8.798;2022-12-17T05:57:22;-4.80;99.90
31765;DHT22;18338;53.240;8.798;2022-12-17T06:00:08;-4.90;99.90
31765;DHT22;18338;53.240;8.798;2022-12-17T06:03:01;-4.80;99.90
31765;DHT22;18338;53.240;8.798;2022-12-17T06:05:49;-4.80;99.90
31765;DHT22;18338;53.240;8.798;2022-12-17T06:08:36;-4.70;99.90
31765;DHT22;18338;53.240;8.798;2022-12-17T06:11:22;-4.70;99.90
31765;DHT22;18338;53.240;8.798;2022-12-17T06:14:07;-4.70;99.90
31765;DHT22;18338;53.240;8.798;2022-12-17T06:16:52;-4.70;99.90
31765;DHT22;18338;53.240;8.798;2022-12-17T06:19:38;-4.70;99.90
31765;DHT22;18338;53.240;8.798;2022-12-17T06:22:23;-4.60;99.90
31765;DHT22;18338;53.240;8.798;2022-12-17T06:25:09;-4.60;99.90
31765;DHT22;18338;53.240;8.798;2022-12-17T06:27:58;-4.60;99.90
31765;DHT22;18338;53.240;8.798;2022-12-17T06:30:53;-4.60;99.90
31765;DHT22;18338;53.240;8.798;2022-12-17T06:33:39;-4.60;99.90
31765;DHT22;18338;53.240;8.798;2022-12-17T06:36:44;-4.50;99.90
31765;DHT22;18338;53.240;8.798;2022-12-17T06:39:29;-4.60;99.90
31765;DHT22;18338;53.240;8.798;2022-12-17T06:42:14;-4.60;99.90
31765;DHT22;18338;53.240;8.798;2022-12-17T06:45:00;-4.60;99.90
31765;DHT22;18338;53.240;8.798;2022-12-17T06:47:45;-4.70;99.90
31765;DHT22;18338;53.240;8.798;2022-12-17T06:50:30;-4.70;99.90
31765;DHT22;18338;53.240;8.798;2022-12-17T06:53:16;-4.80;99.90
31765;DHT22;18338;53.240;8.798;2022-12-17T06:56:02;-4.90;99.90
31765;DHT22;18338;53.240;8.798;2022-12-17T06:58:47;-5.00;99.90
31765;DHT22;18338;53.240;8.798;2022-12-17T07:01:32;-5.00;99.90
31765;DHT22;18338;53.240;8.798;2022-12-17T07:04:18;-5.10;99.90
31765;DHT22;18338;53.240;8.798;2022-12-17T07:07:03;-5.30;99.90
31765;DHT22;18338;53.240;8.798;2022-12-17T07:09:49;-5.50;99.90
31765;DHT22;18338;53.240;8.798;2022-12-17T07:12:39;-5.50;99.90
31765;DHT22;18338;53.240;8.798;2022-12-17T07:15:25;-5.40;99.90
31765;DHT22;18338;53.240;8.798;2022-12-17T07:18:10;-5.20;99.90
31765;DHT22;18338;53.240;8.798;2022-12-17T07:20:55;-5.10;99.90
31765;DHT22;18338;53.240;8.798;2022-12-17T07:23:41;-5.00;99.90
31765;DHT22;18338;53.240;8.798;2022-12-17T07:26:30;-4.90;99.90
31765;DHT22;18338;53.240;8.798;2022-12-17T07:29:15;-4.80;99.90
31765;DHT22;18338;53.240;8.798;2022-12-17T07:32:04;-4.70;99.90
31765;DHT22;18338;53.240;8.798;2022-12-17T07:34:49;-4.70;99.90
31765;DHT22;18338;53.240;8.798;2022-12-17T07:37:34;-4.60;99.90
31765;DHT22;18338;53.240;8.798;2022-12-17T07:40:20;-4.60;99.90
31765;DHT22;18338;53.240;8.798;2022-12-17T07:43:12;-4.60;99.90
31765;DHT22;18338;53.240;8.798;2022-12-17T07:45:58;-4.60;99.90
31765;DHT22;18338;53.240;8.798;2022-12-17T07:48:43;-4.60;99.90
31765;DHT22;18338;53.240;8.798;2022-12-17T07:51:29;-4.60;99.90
31765;DHT22;18338;53.240;8.798;2022-12-17T07:54:14;-4.60;99.90
31765;DHT22;18338;53.240;8.798;2022-12-17T07:56:59;-4.60;99.90
31765;DHT22;18338;53.240;8.798;2022-12-17T07:59:44;-4.60;99.90
31765;DHT22;18338;53.240;8.798;2022-12-17T08:02:30;-4.60;99.90
31765;DHT22;18338;53.240;8.798;2022-12-17T08:05:15;-4.60;99.90
31765;DHT22;18338;53.240;8.798;2022-12-17T08:08:12;-4.60;99.90
31765;DHT22;18338;53.240;8.798;2022-12-17T08:10:58;-4.60;99.90
31765;DHT22;18338;53.240;8.798;2022-12-17T08:13:44;-4.60;99.90
31765;DHT22;18338;53.240;8.798;2022-12-17T08:16:29;-4.60;99.90
31765;DHT22;18338;53.240;8.798;2022-12-17T08:19:15;-4.60;99.90
31765;DHT22;18338;53.240;8.798;2022-12-17T08:22:00;-4.60;99.90
31765;DHT22;18338;53.240;8.798;2022-12-17T08:24:45;-4.60;99.90
31765;DHT22;18338;53.240;8.798;2022-12-17T08:27:30;-4.60;99.90
31765;DHT22;18338;53.240;8.798;2022-12-17T08:30:16;-4.50;99.90
31765;DHT22;18338;53.240;8.798;2022-12-17T08:33:06;-4.40;99.90
31765;DHT22;18338;53.240;8.798;2022-12-17T08:35:56;-4.30;99.90
31765;DHT22;18338;53.240;8.798;2022-12-17T08:38:42;-4.30;99.90
31765;DHT22;18338;53.240;8.798;2022-12-17T08:41:27;-4.30;99.90
31765;DHT22;18338;53.240;8.798;2022-12-17T08:44:19;-4.20;99.90
31765;DHT22;18338;53.240;8.798;2022-12-17T08:47:05;-4.20;99.90
31765;DHT22;18338;53.240;8.798;2022-12-17T08:49:50;-4.30;99.90
31765;DHT22;18338;53.240;8.798;2022-12-17T08:52:35;-4.40;99.90
31765;DHT22;18338;53.240;8.798;2022-12-17T08:55:21;-4.30;99.90
31765;DHT22;18338;53.240;8.798;2022-12-17T08:58:07;-4.20;99.90
31765;DHT22;18338;53.240;8.798;2022-12-17T09:00:52;-4.10;99.90
31765;DHT22;18338;53.240;8.798;2022-12-17T09:03:38;-4.10;99.90
31765;DHT22;18338;53.240;8.798;2022-12-17T09:06:24;-4.00;99.90
31765;DHT22;18338;53.240;8.798;2022-12-17T09:09:10;-4.00;99.90
31765;DHT22;18338;53.240;8.798;2022-12-17T09:11:55;-3.90;99.90
31765;DHT22;18338;53.240;8.798;2022-12-17T09:14:41;-3.90;99.90
31765;DHT22;18338;53.240;8.798;2022-12-17T09:17:26;-3.90;99.90
31765;DHT22;18338;53.240;8.798;2022-12-17T09:20:11;-3.80;99.90
31765;DHT22;18338;53.240;8.798;2022-12-17T09:22:56;-3.30;99.90
31765;DHT22;18338;53.240;8.798;2022-12-17T09:26:02;-2.30;99.90
31765;DHT22;18338;53.240;8.798;2022-12-17T09:28:48;-2.10;99.90
31765;DHT22;18338;53.240;8.798;2022-12-17T09:31:34;-2.00;99.90
31765;DHT22;18338;53.240;8.798;2022-12-17T09:34:29;-2.30;99.90
31765;DHT22;18338;53.240;8.798;2022-12-17T09:37:14;-2.00;99.90
31765;DHT22;18338;53.240;8.798;2022-12-17T09:39:59;-1.70;99.90
31765;DHT22;18338;53.240;8.798;2022-12-17T09:42:57;-1.40;99.90
31765;DHT22;18338;53.240;8.798;2022-12-17T09:45:54;-2.10;99.90
31765;DHT22;18338;53.240;8.798;2022-12-17T09:52:25;-2.90;99.90
31765;DHT22;18338;53.240;8.798;2022-12-17T09:55:18;-3.00;99.90
31765;DHT22;18338;53.240;8.798;2022-12-17T09:58:04;-3.20;99.90
31765;DHT22;18338;53.240;8.798;2022-12-17T10:00:51;-3.40;99.90
31765;DHT22;18338;53.240;8.798;2022-12-17T10:03:36;-3.50;99.90
31765;DHT22;18338;53.240;8.798;2022-12-17T10:06:24;-3.50;99.90
31765;DHT22;18338;53.240;8.798;2022-12-17T10:09:16;-3.50;99.90
31765;DHT22;18338;53.240;8.798;2022-12-17T10:12:12;-3.50;99.90
31765;DHT22;18338;53.240;8.798;2022-12-17T10:14:57;-3.50;99.90
31765;DHT22;18338;53.240;8.798;2022-12-17T10:17:43;-3.50;99.90
31765;DHT22;18338;53.240;8.798;2022-12-17T10:20:42;-3.30;99.90
31765;DHT22;18338;53.240;8.798;2022-12-17T10:23:31;-3.30;99.90
31765;DHT22;18338;53.240;8.798;2022-12-17T10:26:20;-3.10;99.90
31765;DHT22;18338;53.240;8.798;2022-12-17T10:29:11;-3.10;99.90
31765;DHT22;18338;53.240;8.798;2022-12-17T10:32:10;-3.20;99.90
31765;DHT22;18338;53.240;8.798;2022-12-17T10:34:55;-3.20;99.90
31765;DHT22;18338;53.240;8.798;2022-12-17T10:37:41;-3.20;99.90
31765;DHT22;18338;53.240;8.798;2022-12-17T10:40:28;-3.30;99.90
31765;DHT22;18338;53.240;8.798;2022-12-17T10:46:09;-3.00;99.90
31765;DHT22;18338;53.240;8.798;2022-12-17T10:49:08;-2.60;99.90
31765;DHT22;18338;53.240;8.798;2022-12-17T10:52:42;-2.50;99.90
31765;DHT22;18338;53.240;8.798;2022-12-17T10:55:26;-2.00;99.90
31765;DHT22;18338;53.240;8.798;2022-12-17T10:58:31;-1.80;99.90
31765;DHT22;18338;53.240;8.798;2022-12-17T11:01:24;-1.60;99.90
31765;DHT22;18338;53.240;8.798;2022-12-17T11:04:31;-1.60;99.90
31765;DHT22;18338;53.240;8.798;2022-12-17T11:07:22;-1.30;99.90
31765;DHT22;18338;53.240;8.798;2022-12-17T11:10:17;-1.30;99.90
31765;DHT22;18338;53.240;8.798;2022-12-17T11:13:08;-1.00;99.90
31765;DHT22;18338;53.240;8.798;2022-12-17T11:15:56;-1.00;99.90
31765;DHT22;18338;53.240;8.798;2022-12-17T11:22:00;-1.20;99.90
31765;DHT22;18338;53.240;8.798;2022-12-17T11:25:18;-1.60;99.90
31765;DHT22;18338;53.240;8.798;2022-12-17T11:28:22;-1.70;99.90
31765;DHT22;18338;53.240;8.798;2022-12-17T11:40:51;-2.40;99.90
31765;DHT22;18338;53.240;8.798;2022-12-17T11:44:03;-2.30;99.90
31765;DHT22;18338;53.240;8.798;2022-12-17T11:50:40;-2.30;99.90
31765;DHT22;18338;53.240;8.798;2022-12-17T11:53:50;-2.30;99.90
31765;DHT22;18338;53.240;8.798;2022-12-17T11:56:44;-2.40;99.90
31765;DHT22;18338;53.240;8.798;2022-12-17T11:59:33;-2.40;99.90
31765;DHT22;18338;53.240;8.798;2022-12-17T12:05:44;-2.20;99.90
31765;DHT22;18338;53.240;8.798;2022-12-17T12:11:33;-2.20;99.90
31765;DHT22;18338;53.240;8.798;2022-12-17T12:26:18;-2.30;99.90
31765;DHT22;18338;53.240;8.798;2022-12-17T12:29:38;-2.10;99.90
31765;DHT22;18338;53.240;8.798;2022-12-17T12:35:45;-2.20;99.90
31765;DHT22;18338;53.240;8.798;2022-12-17T12:38:39;-2.30;99.90
31765;DHT22;18338;53.240;8.798;2022-12-17T12:47:33;-2.10;99.90
31765;DHT22;18338;53.240;8.798;2022-12-17T12:50:44;-2.20;99.90
31765;DHT22;18338;53.240;8.798;2022-12-17T12:53:32;-2.10;99.90
31765;DHT22;18338;53.240;8.798;2022-12-17T12:56:32;-2.00;99.90
31765;DHT22;18338;53.240;8.798;2022-12-17T12:59:25;-2.00;99.90
31765;DHT22;18338;53.240;8.798;2022-12-17T13:02:27;-1.90;99.90
31765;DHT22;18338;53.240;8.798;2022-12-17T13:08:22;-1.80;99.90
31765;DHT22;18338;53.240;8.798;2022-12-17T13:10:51;-2.00;99.90
31765;DHT22;18338;53.240;8.798;2022-12-17T13:13:33;-2.00;99.90
31765;DHT22;18338;53.240;8.798;2022-12-17T13:16:15;-2.10;99.90
31765;DHT22;18338;53.240;8.798;2022-12-17T13:18:48;-2.10;99.90
31765;DHT22;18338;53.240;8.798;2022-12-17T13:21:26;-2.10;99.90
31765;DHT22;18338;53.240;8.798;2022-12-17T13:23:54;-2.20;99.90
31765;DHT22;18338;53.240;8.798;2022-12-17T13:26:29;-2.20;99.90
31765;DHT22;18338;53.240;8.798;2022-12-17T13:29:00;-2.20;99.90
31765;DHT22;18338;53.240;8.798;2022-12-17T13:34:34;-2.10;99.90
31765;DHT22;18338;53.240;8.798;2022-12-17T13:37:25;-2.10;99.90
31765;DHT22;18338;53.240;8.798;2022-12-17T13:40:22;-2.10;99.90
31765;DHT22;18338;53.240;8.798;2022-12-17T13:42:49;-2.00;99.90
31765;DHT22;18338;53.240;8.798;2022-12-17T13:45:19;-2.10;99.90
31765;DHT22;18338;53.240;8.798;2022-12-17T13:47:54;-2.10;99.90
31765;DHT22;18338;53.240;8.798;2022-12-17T13:50:26;-2.20;99.90
31765;DHT22;18338;53.240;8.798;2022-12-17T13:53:10;-2.10;99.90
31765;DHT22;18338;53.240;8.798;2022-12-17T13:55:37;-2.20;99.90
31765;DHT22;18338;53.240;8.798;2022-12-17T13:58:04;-2.30;99.90
31765;DHT22;18338;53.240;8.798;2022-12-17T14:00:31;-2.30;99.90
31765;DHT22;18338;53.240;8.798;2022-12-17T14:03:09;-2.50;99.90
31765;DHT22;18338;53.240;8.798;2022-12-17T14:05:37;-2.50;99.90
31765;DHT22;18338;53.240;8.798;2022-12-17T14:08:08;-2.50;99.90
31765;DHT22;18338;53.240;8.798;2022-12-17T14:10:35;-2.50;99.90
31765;DHT22;18338;53.240;8.798;2022-12-17T14:13:07;-2.50;99.90
31765;DHT22;18338;53.240;8.798;2022-12-17T14:15:34;-2.70;99.90
31765;DHT22;18338;53.240;8.798;2022-12-17T14:18:01;-2.70;99.90
31765;DHT22;18338;53.240;8.798;2022-12-17T14:20:31;-2.80;99.90
31765;DHT22;18338;53.240;8.798;2022-12-17T14:23:02;-2.80;99.90
31765;DHT22;18338;53.240;8.798;2022-12-17T14:25:42;-2.80;99.90
31765;DHT22;18338;53.240;8.798;2022-12-17T14:28:28;-2.80;99.90
31765;DHT22;18338;53.240;8.798;2022-12-17T14:36:27;-2.90;99.90
31765;DHT22;18338;53.240;8.798;2022-12-17T14:39:00;-2.80;99.90
31765;DHT22;18338;53.240;8.798;2022-12-17T14:41:28;-2.80;99.90
31765;DHT22;18338;53.240;8.798;2022-12-17T14:44:23;-2.90;99.90
31765;DHT22;18338;53.240;8.798;2022-12-17T14:47:05;-2.90;99.90
31765;DHT22;18338;53.240;8.798;2022-12-17T14:49:33;-2.90;99.90
31765;DHT22;18338;53.240;8.798;2022-12-17T14:52:11;-2.90;99.90
31765;DHT22;18338;53.240;8.798;2022-12-17T14:54:44;-3.00;99.90
31765;DHT22;18338;53.240;8.798;2022-12-17T14:57:21;-2.90;99.90
31765;DHT22;18338;53.240;8.798;2022-12-17T14:59:48;-3.00;99.90
31765;DHT22;18338;53.240;8.798;2022-12-17T15:02:26;-3.00;99.90
31765;DHT22;18338;53.240;8.798;2022-12-17T15:04:59;-3.10;99.90
31765;DHT22;18338;53.240;8.798;2022-12-17T15:07:29;-3.10;99.90
31765;DHT22;18338;53.240;8.798;2022-12-17T15:10:00;-3.10;99.90
31765;DHT22;18338;53.240;8.798;2022-12-17T15:12:34;-3.10;99.90
31765;DHT22;18338;53.240;8.798;2022-12-17T15:15:00;-3.00;99.90
31765;DHT22;18338;53.240;8.798;2022-12-17T15:17:27;-3.00;99.90
31765;DHT22;18338;53.240;8.798;2022-12-17T15:19:54;-3.00;99.90
31765;DHT22;18338;53.240;8.798;2022-12-17T15:22:22;-3.00;99.90
31765;DHT22;18338;53.240;8.798;2022-12-17T15:24:50;-3.00;99.90
31765;DHT22;18338;53.240;8.798;2022-12-17T15:27:17;-3.00;99.90
31765;DHT22;18338;53.240;8.798;2022-12-17T15:29:44;-3.00;99.90
31765;DHT22;18338;53.240;8.798;2022-12-17T15:32:19;-3.00;99.90
31765;DHT22;18338;53.240;8.798;2022-12-17T15:34:47;-3.00;99.90
31765;DHT22;18338;53.240;8.798;2022-12-17T15:37:14;-3.00;99.90
31765;DHT22;18338;53.240;8.798;2022-12-17T15:39:48;-3.10;99.90
31765;DHT22;18338;53.240;8.798;2022-12-17T15:42:14;-3.10;99.90
31765;DHT22;18338;53.240;8.798;2022-12-17T15:45:00;-3.10;99.90
31765;DHT22;18338;53.240;8.798;2022-12-17T15:47:26;-3.10;99.90
31765;DHT22;18338;53.240;8.798;2022-12-17T15:49:53;-3.10;99.90
31765;DHT22;18338;53.240;8.798;2022-12-17T15:52:20;-3.10;99.90
31765;DHT22;18338;53.240;8.798;2022-12-17T15:54:46;-3.10;99.90
31765;DHT22;18338;53.240;8.798;2022-12-17T15:57:14;-3.10;99.90
31765;DHT22;18338;53.240;8.798;2022-12-17T15:59:44;-3.10;99.90
31765;DHT22;18338;53.240;8.798;2022-12-17T16:02:11;-3.10;99.90
31765;DHT22;18338;53.240;8.798;2022-12-17T16:04:38;-3.10;99.90
31765;DHT22;18338;53.240;8.798;2022-12-17T16:07:05;-3.20;99.90
31765;DHT22;18338;53.240;8.798;2022-12-17T16:09:31;-3.10;99.90
31765;DHT22;18338;53.240;8.798;2022-12-17T16:11:58;-3.10;99.90
31765;DHT22;18338;53.240;8.798;2022-12-17T16:14:25;-3.10;99.90
31765;DHT22;18338;53.240;8.798;2022-12-17T16:16:52;-3.10;99.90
31765;DHT22;18338;53.240;8.798;2022-12-17T16:19:18;-3.00;99.90
31765;DHT22;18338;53.240;8.798;2022-12-17T16:21:45;-3.00;99.90
31765;DHT22;18338;53.240;8.798;2022-12-17T16:24:12;-3.00;99.90
31765;DHT22;18338;53.240;8.798;2022-12-17T16:26:39;-3.00;99.90
31765;DHT22;18338;53.240;8.798;2022-12-17T16:29:06;-2.90;99.90
31765;DHT22;18338;53.240;8.798;2022-12-17T16:31:32;-2.90;99.90
31765;DHT22;18338;53.240;8.798;2022-12-17T16:33:59;-3.00;99.90
31765;DHT22;18338;53.240;8.798;2022-12-17T16:36:26;-3.00;99.90
31765;DHT22;18338;53.240;8.798;2022-12-17T16:38:53;-2.90;99.90
31765;DHT22;18338;53.240;8.798;2022-12-17T16:41:21;-2.90;99.90
31765;DHT22;18338;53.240;8.798;2022-12-17T16:43:48;-2.90;99.90
31765;DHT22;18338;53.240;8.798;2022-12-17T16:46:33;-2.90;99.90
31765;DHT22;18338;53.240;8.798;2022-12-17T16:49:09;-3.00;99.90
31765;DHT22;18338;53.240;8.798;2022-12-17T16:51:38;-3.00;99.90
31765;DHT22;18338;53.240;8.798;2022-12-17T16:54:11;-3.00;99.90
31765;DHT22;18338;53.240;8.798;2022-12-17T16:56:40;-3.00;99.90
31765;DHT22;18338;53.240;8.798;2022-12-17T16:59:08;-3.00;99.90
31765;DHT22;18338;53.240;8.798;2022-12-17T17:01:36;-3.00;99.90
31765;DHT22;18338;53.240;8.798;2022-12-17T17:04:07;-3.00;99.90
31765;DHT22;18338;53.240;8.798;2022-12-17T17:06:56;-3.00;99.90
31765;DHT22;18338;53.240;8.798;2022-12-17T17:09:23;-3.10;99.90
31765;DHT22;18338;53.240;8.798;2022-12-17T17:11:54;-3.10;99.90
31765;DHT22;18338;53.240;8.798;2022-12-17T17:14:21;-3.20;99.90
31765;DHT22;18338;53.240;8.798;2022-12-17T17:16:48;-3.20;99.90
31765;DHT22;18338;53.240;8.798;2022-12-17T17:19:15;-3.20;99.90
31765;DHT22;18338;53.240;8.798;2022-12-17T17:21:50;-3.30;99.90
31765;DHT22;18338;53.240;8.798;2022-12-17T17:24:19;-3.30;99.90
31765;DHT22;18338;53.240;8.798;2022-12-17T17:26:53;-3.30;99.90
31765;DHT22;18338;53.240;8.798;2022-12-17T17:29:20;-3.30;99.90
31765;DHT22;18338;53.240;8.798;2022-12-17T17:31:47;-3.30;99.90
31765;DHT22;18338;53.240;8.798;2022-12-17T17:34:34;-3.30;99.90
31765;DHT22;18338;53.240;8.798;2022-12-17T17:37:00;-3.40;99.90
31765;DHT22;18338;53.240;8.798;2022-12-17T17:39:27;-3.40;99.90
31765;DHT22;18338;53.240;8.798;2022-12-17T17:41:57;-3.40;99.90
31765;DHT22;18338;53.240;8.798;2022-12-17T17:44:25;-3.50;99.90
31765;DHT22;18338;53.240;8.798;2022-12-17T17:46:52;-3.50;99.90
31765;DHT22;18338;53.240;8.798;2022-12-17T17:49:19;-3.50;99.90
31765;DHT22;18338;53.240;8.798;2022-12-17T17:51:45;-3.50;99.90
31765;DHT22;18338;53.240;8.798;2022-12-17T17:54:32;-3.50;99.90
31765;DHT22;18338;53.240;8.798;2022-12-17T17:56:59;-3.60;99.90
31765;DHT22;18338;53.240;8.798;2022-12-17T17:59:26;-3.70;99.90
31765;DHT22;18338;53.240;8.798;2022-12-17T18:01:59;-3.80;99.90
31765;DHT22;18338;53.240;8.798;2022-12-17T18:04:27;-3.90;99.90
31765;DHT22;18338;53.240;8.798;2022-12-17T18:06:54;-3.90;99.90
31765;DHT22;18338;53.240;8.798;2022-12-17T18:09:41;-4.00;99.90
31765;DHT22;18338;53.240;8.798;2022-12-17T18:12:07;-4.10;99.90
31765;DHT22;18338;53.240;8.798;2022-12-17T18:14:53;-4.20;99.90
31765;DHT22;18338;53.240;8.798;2022-12-17T18:17:40;-4.30;99.90